createdAt,value
2018-03-25T00:00:36.056Z,15.00
2018-03-25T00:03:04.345Z,15.40
2018-03-25T00:05:32.159Z,14.47
2018-03-25T00:07:59.713Z,15.23
2018-03-25T00:10:27.313Z,15.43
2018-03-25T00:12:54.906Z,15.83
2018-03-25T00:15:22.830Z,15.93
2018-03-25T00:17:50.398Z,16.40
2018-03-25T00:20:18.426Z,15.87
2018-03-25T00:22:45.980Z,16.53
2018-03-25T00:25:13.584Z,16.07
2018-03-25T00:27:41.160Z,14.67
2018-03-25T00:30:08.764Z,15.70
2018-03-25T00:32:36.371Z,15.93
2018-03-25T00:35:04.007Z,14.57
2018-03-25T00:37:31.613Z,15.27
2018-03-25T00:39:59.160Z,15.57
2018-03-25T00:42:26.779Z,15.63
2018-03-25T00:44:54.344Z,14.33
2018-03-25T00:47:22.429Z,16.40
2018-03-25T00:49:50.018Z,15.50
2018-03-25T00:52:17.617Z,14.20
2018-03-25T00:54:45.181Z,16.77
2018-03-25T00:57:12.781Z,14.63
2018-03-25T00:59:40.334Z,15.67
2018-03-25T01:02:08.520Z,15.30
2018-03-25T01:04:36.114Z,14.93
2018-03-25T01:07:03.673Z,15.07
2018-03-25T01:09:31.223Z,15.30
2018-03-25T01:11:58.819Z,14.77
2018-03-25T01:14:26.380Z,15.63
2018-03-25T01:16:53.928Z,14.60
2018-03-25T01:19:21.516Z,14.53
2018-03-25T01:21:49.905Z,15.00
2018-03-25T01:24:17.446Z,14.73
2018-03-25T01:26:45.799Z,16.27
2018-03-25T01:29:13.402Z,14.23
2018-03-25T01:31:40.944Z,15.50
2018-03-25T01:34:08.962Z,16.27
2018-03-25T01:36:36.572Z,15.43
2018-03-25T01:39:04.172Z,15.40
2018-03-25T01:41:31.751Z,16.13
2018-03-25T01:43:59.360Z,15.07
2018-03-25T01:46:26.903Z,16.03
2018-03-25T01:48:54.507Z,18.63
2018-03-25T01:51:22.061Z,15.17
2018-03-25T01:53:49.599Z,15.43
2018-03-25T01:56:17.193Z,15.90
2018-03-25T01:58:44.744Z,15.67
2018-03-25T02:01:12.667Z,15.33
2018-03-25T02:03:40.732Z,15.30
2018-03-25T02:06:08.964Z,15.53
2018-03-25T02:08:36.917Z,17.17
2018-03-25T02:11:04.509Z,15.87
2018-03-25T02:13:32.894Z,15.73
2018-03-25T02:16:00.941Z,15.60
2018-03-25T02:18:28.532Z,16.07
2018-03-25T02:20:56.127Z,15.63
2018-03-25T02:23:24.703Z,16.17
2018-03-25T02:25:52.265Z,16.37
2018-03-25T02:28:20.676Z,16.83
2018-03-25T02:30:48.230Z,17.57
2018-03-25T02:33:15.849Z,18.47
2018-03-25T02:35:43.762Z,17.20
2018-03-25T02:38:11.740Z,17.57
2018-03-25T02:40:40.312Z,15.03
2018-03-25T02:43:07.868Z,16.67
2018-03-25T02:45:35.451Z,16.47
2018-03-25T02:48:03.009Z,17.47
2018-03-25T02:50:30.599Z,17.13
2018-03-25T02:52:58.140Z,16.27
2018-03-25T02:55:25.742Z,16.50
2018-03-25T02:57:53.293Z,16.83
2018-03-25T03:00:20.882Z,17.13
2018-03-25T03:02:48.477Z,17.87
2018-03-25T03:05:16.490Z,17.40
2018-03-25T03:07:44.053Z,17.53
2018-03-25T03:10:11.646Z,16.33
2018-03-25T03:12:40.038Z,17.27
2018-03-25T03:15:07.579Z,17.43
2018-03-25T03:17:35.174Z,17.33
2018-03-25T03:20:02.743Z,18.50
2018-03-25T03:22:30.356Z,17.83
2018-03-25T03:24:57.939Z,16.27
2018-03-25T03:27:26.420Z,17.40
2018-03-25T03:29:54.433Z,17.73
2018-03-25T03:32:22.684Z,15.97
2018-03-25T03:34:50.227Z,17.40
2018-03-25T03:37:17.826Z,16.13
2018-03-25T03:39:45.418Z,17.03
2018-03-25T03:42:13.007Z,17.70
2018-03-25T03:44:40.595Z,17.10
2018-03-25T03:47:08.979Z,17.17
2018-03-25T03:49:36.528Z,17.53
2018-03-25T03:52:04.132Z,17.97
2018-03-25T03:54:31.670Z,18.00
2018-03-25T03:56:59.260Z,16.97
2018-03-25T03:59:26.846Z,18.37
2018-03-25T04:01:54.401Z,17.40
2018-03-25T04:04:21.992Z,18.27
2018-03-25T04:06:49.544Z,17.83
2018-03-25T04:09:17.651Z,17.73
2018-03-25T04:11:45.496Z,18.80
2018-03-25T04:14:13.358Z,18.33
2018-03-25T04:16:40.972Z,17.60
2018-03-25T04:19:08.572Z,18.33
2018-03-25T04:21:36.829Z,18.70
2018-03-25T04:24:04.420Z,18.00
2018-03-25T04:26:31.977Z,18.73
2018-03-25T04:28:59.528Z,18.33
2018-03-25T04:31:27.127Z,18.33
2018-03-25T04:33:54.681Z,18.80
2018-03-25T04:36:22.263Z,18.27
2018-03-25T04:38:49.860Z,19.00
2018-03-25T04:41:17.444Z,19.37
2018-03-25T04:43:44.990Z,18.37
2018-03-25T04:46:12.595Z,19.67
2018-03-25T04:48:40.173Z,19.13
2018-03-25T04:51:08.241Z,20.90
2018-03-25T04:53:35.839Z,20.30
2018-03-25T04:56:03.459Z,22.33
2018-03-25T04:58:31.061Z,23.80
2018-03-25T05:00:58.613Z,23.33
2018-03-25T05:03:26.413Z,25.87
2018-03-25T05:05:54.076Z,26.07
2018-03-25T05:08:21.619Z,26.30
2018-03-25T05:10:50.027Z,24.80
2018-03-25T05:13:17.620Z,25.60
2018-03-25T05:15:45.180Z,25.23
2018-03-25T05:18:13.516Z,24.27
2018-03-25T05:20:41.073Z,24.13
2018-03-25T05:23:09.481Z,25.43
2018-03-25T05:25:37.023Z,28.20
2018-03-25T05:28:05.135Z,24.93
2018-03-25T05:30:33.535Z,22.77
2018-03-25T05:33:01.247Z,24.27
2018-03-25T05:35:28.809Z,22.90
2018-03-25T05:37:56.402Z,23.17
2018-03-25T05:40:24.001Z,26.35
2018-03-25T05:42:52.421Z,26.05
2018-03-25T05:45:19.972Z,22.50
2018-03-25T05:47:48.173Z,25.42
2018-03-25T05:50:15.727Z,23.10
2018-03-25T05:52:43.327Z,21.30
2018-03-25T05:55:10.920Z,21.37
2018-03-25T05:57:39.063Z,23.38
2018-03-25T06:00:06.680Z,22.37
2018-03-25T06:02:35.051Z,23.98
2018-03-25T06:05:03.305Z,21.57
2018-03-25T06:07:31.332Z,24.02
2018-03-25T06:09:59.162Z,23.55
2018-03-25T06:12:27.979Z,20.20
2018-03-25T06:14:55.535Z,22.20
2018-03-25T06:17:24.545Z,24.12
2018-03-25T06:19:52.138Z,21.37
2018-03-25T06:22:20.688Z,21.87
2018-03-25T06:24:48.555Z,21.87
2018-03-25T06:27:16.144Z,23.55
2018-03-25T06:29:43.903Z,22.07
2018-03-25T06:32:11.456Z,22.73
2018-03-25T06:34:39.949Z,24.80
2018-03-25T06:37:07.513Z,22.20
2018-03-25T06:39:35.469Z,25.08
2018-03-25T06:42:03.024Z,23.27
2018-03-25T06:44:30.832Z,27.70
2018-03-25T06:46:59.235Z,29.80
2018-03-25T06:49:27.042Z,30.97
2018-03-25T06:51:56.333Z,32.90
2018-03-25T06:54:23.893Z,30.40
2018-03-25T06:56:53.059Z,31.00
2018-03-25T06:59:20.797Z,28.63
2018-03-25T07:01:48.480Z,31.73
2018-03-25T07:04:16.313Z,30.92
2018-03-25T07:06:43.869Z,30.75
2018-03-25T07:09:11.473Z,27.67
2018-03-25T07:11:39.072Z,28.05
2018-03-25T07:14:06.624Z,24.37
2018-03-25T07:16:34.221Z,27.08
2018-03-25T07:19:01.772Z,27.08
2018-03-25T07:21:29.925Z,23.43
2018-03-25T07:23:57.518Z,22.93
2018-03-25T07:26:25.071Z,21.70
2018-03-25T07:28:52.681Z,21.70
2018-03-25T07:31:20.284Z,21.50
2018-03-25T07:33:47.892Z,24.75
2018-03-25T07:36:15.503Z,23.25
2018-03-25T07:38:43.546Z,20.53
2018-03-25T07:41:11.152Z,23.65
2018-03-25T07:43:39.147Z,23.23
2018-03-25T07:46:06.753Z,21.67
2018-03-25T07:48:34.300Z,21.33
2018-03-25T07:51:01.903Z,22.65
2018-03-25T07:53:29.499Z,22.95
2018-03-25T07:55:57.113Z,21.53
2018-03-25T07:58:24.718Z,24.87
2018-03-25T08:00:52.638Z,22.13
2018-03-25T08:03:20.249Z,21.27
2018-03-25T08:05:47.833Z,22.67
2018-03-25T08:08:15.428Z,21.80
2018-03-25T08:10:42.985Z,22.20
2018-03-25T08:13:10.575Z,21.50
2018-03-25T08:15:38.531Z,21.60
2018-03-25T08:18:06.125Z,20.73
2018-03-25T08:20:33.705Z,21.93
2018-03-25T08:23:01.926Z,21.73
2018-03-25T08:25:30.439Z,22.17
2018-03-25T08:27:58.088Z,22.07
2018-03-25T08:30:26.199Z,21.70
2018-03-25T08:32:53.753Z,23.62
2018-03-25T08:35:21.829Z,21.93
2018-03-25T08:37:49.384Z,21.70
2018-03-25T08:40:16.976Z,20.73
2018-03-25T08:42:45.227Z,20.43
2018-03-25T08:45:12.778Z,21.93
2018-03-25T08:47:40.731Z,20.13
2018-03-25T08:50:09.423Z,21.13
2018-03-25T08:52:37.013Z,19.57
2018-03-25T08:55:04.769Z,19.27
2018-03-25T08:57:32.337Z,19.07
2018-03-25T08:59:59.966Z,20.07
2018-03-25T09:02:27.533Z,19.60
2018-03-25T09:04:55.619Z,19.77
2018-03-25T09:07:23.915Z,16.60
2018-03-25T09:09:51.479Z,19.57
2018-03-25T09:12:19.095Z,19.95
2018-03-25T09:14:48.139Z,18.60
2018-03-25T09:17:15.971Z,18.70
2018-03-25T09:19:43.523Z,17.33
2018-03-25T09:22:11.116Z,18.90
2018-03-25T09:24:38.940Z,17.43
2018-03-25T09:27:06.536Z,18.07
2018-03-25T09:29:34.089Z,19.77
2018-03-25T09:32:02.536Z,19.80
2018-03-25T09:34:30.151Z,17.57
2018-03-25T09:36:58.116Z,16.43
2018-03-25T09:39:26.565Z,17.53
2018-03-25T09:41:54.121Z,16.87
2018-03-25T09:44:22.090Z,17.37
2018-03-25T09:46:50.693Z,16.27
2018-03-25T09:49:18.243Z,16.03
2018-03-25T09:51:45.795Z,16.47
2018-03-25T09:54:13.891Z,17.77
2018-03-25T09:56:41.477Z,17.03
2018-03-25T09:59:09.080Z,16.17
2018-03-25T10:01:42.316Z,16.57
2018-03-25T10:04:11.078Z,16.20
2018-03-25T10:06:38.633Z,17.13
2018-03-25T10:09:06.772Z,16.27
2018-03-25T10:11:34.319Z,17.37
2018-03-25T10:14:01.884Z,16.43
2018-03-25T10:16:29.482Z,17.27
2018-03-25T10:18:57.130Z,15.83
2018-03-25T10:21:24.660Z,16.67
2018-03-25T10:23:52.738Z,16.80
2018-03-25T10:26:22.197Z,16.57
2018-03-25T10:28:49.805Z,15.87
2018-03-25T10:31:17.886Z,15.93
2018-03-25T10:33:45.476Z,16.30
2018-03-25T10:36:13.036Z,15.60
2018-03-25T10:38:41.159Z,13.97
2018-03-25T10:41:08.767Z,16.97
2018-03-25T10:43:36.359Z,14.87
2018-03-25T10:46:04.516Z,16.33
2018-03-25T10:48:32.123Z,14.83
2018-03-25T10:51:00.577Z,15.33
2018-03-25T10:53:29.400Z,14.63
2018-03-25T10:55:56.993Z,15.53
2018-03-25T10:58:25.433Z,13.93
2018-03-25T11:00:53.523Z,15.60
2018-03-25T11:03:21.135Z,14.97
2018-03-25T11:05:49.702Z,17.67
2018-03-25T11:08:17.863Z,15.43
2018-03-25T11:10:46.238Z,15.93
2018-03-25T11:13:13.828Z,14.73
2018-03-25T11:15:41.387Z,16.90
2018-03-25T11:18:09.358Z,15.07
2018-03-25T11:20:36.972Z,16.27
2018-03-25T11:23:04.610Z,15.87
2018-03-25T11:25:33.177Z,16.53
2018-03-25T11:28:00.746Z,16.58
2018-03-25T11:30:28.356Z,16.33
2018-03-25T11:32:55.935Z,15.17
2018-03-25T11:35:24.221Z,15.10
2018-03-25T11:37:51.805Z,15.20
2018-03-25T11:40:19.396Z,15.17
2018-03-25T11:42:47.756Z,14.40
2018-03-25T11:45:16.214Z,15.27
2018-03-25T11:47:43.768Z,15.07
2018-03-25T11:50:11.355Z,14.67
2018-03-25T11:52:38.918Z,13.80
2018-03-25T11:55:06.515Z,15.67
2018-03-25T11:57:34.067Z,14.83
2018-03-25T12:00:03.052Z,16.97
2018-03-25T12:02:31.404Z,14.33
2018-03-25T12:04:59.900Z,15.23
2018-03-25T12:07:27.680Z,15.93
2018-03-25T12:09:55.227Z,16.03
2018-03-25T12:12:22.774Z,16.27
2018-03-25T12:14:50.403Z,16.90
2018-03-25T12:17:19.147Z,15.77
2018-03-25T12:19:47.197Z,16.53
2018-03-25T12:22:15.483Z,15.37
2018-03-25T12:24:43.083Z,16.03
2018-03-25T12:27:12.293Z,16.13
2018-03-25T12:29:39.900Z,16.57
2018-03-25T12:32:07.626Z,16.87
2018-03-25T12:34:35.723Z,16.87
2018-03-25T12:37:04.168Z,17.87
2018-03-25T12:39:31.777Z,15.73
2018-03-25T12:42:00.245Z,16.43
2018-03-25T12:44:27.849Z,15.83
2018-03-25T12:46:56.555Z,16.17
2018-03-25T12:49:25.166Z,17.27
2018-03-25T12:51:52.903Z,16.57
2018-03-25T12:54:20.950Z,16.03
2018-03-25T12:56:48.773Z,15.37
2018-03-25T12:59:16.371Z,16.65
2018-03-25T13:01:45.554Z,15.67
2018-03-25T13:04:14.734Z,16.47
2018-03-25T13:06:43.341Z,15.47
2018-03-25T13:09:11.738Z,16.30
2018-03-25T13:11:39.295Z,14.70
2018-03-25T13:14:08.245Z,17.70
2018-03-25T13:16:36.062Z,16.53
2018-03-25T13:19:03.796Z,18.45
2018-03-25T13:21:31.911Z,16.50
2018-03-25T13:24:00.901Z,15.87
2018-03-25T13:26:28.497Z,15.93
2018-03-25T13:28:56.100Z,16.33
2018-03-25T13:31:24.327Z,16.53
2018-03-25T13:33:52.740Z,16.45
2018-03-25T13:36:20.617Z,15.93
2018-03-25T13:38:48.722Z,17.13
2018-03-25T13:41:16.697Z,18.43
2018-03-25T13:43:45.342Z,17.03
2018-03-25T13:46:12.936Z,17.50
2018-03-25T13:48:41.243Z,18.37
2018-03-25T13:51:08.844Z,18.92
2018-03-25T13:53:36.392Z,17.60
2018-03-25T13:56:04.928Z,16.57
2018-03-25T13:58:32.538Z,16.77
2018-03-25T14:01:00.874Z,16.03
2018-03-25T14:03:28.974Z,17.85
2018-03-25T14:05:56.573Z,18.03
2018-03-25T14:08:24.309Z,20.13
2018-03-25T14:10:52.006Z,17.33
2018-03-25T14:13:19.553Z,17.00
2018-03-25T14:15:47.181Z,17.83
2018-03-25T14:18:14.732Z,17.17
2018-03-25T14:20:44.006Z,18.87
2018-03-25T14:23:12.554Z,17.07
2018-03-25T14:25:40.125Z,17.30
2018-03-25T14:28:08.643Z,17.17
2018-03-25T14:30:36.212Z,17.40
2018-03-25T14:33:03.814Z,17.97
2018-03-25T14:35:31.424Z,17.43
2018-03-25T14:37:59.242Z,17.83
2018-03-25T14:40:27.807Z,17.70
2018-03-25T14:42:56.003Z,16.80
2018-03-25T14:45:23.582Z,16.83
2018-03-25T14:47:51.206Z,17.60
2018-03-25T14:50:20.128Z,20.70
2018-03-25T14:52:48.882Z,17.93
2018-03-25T14:55:18.028Z,18.43
2018-03-25T14:57:45.984Z,18.40
2018-03-25T15:00:14.796Z,17.50
2018-03-25T15:02:43.588Z,16.53
2018-03-25T15:05:11.739Z,18.23
2018-03-25T15:07:40.121Z,20.80
2018-03-25T15:10:08.523Z,17.70
2018-03-25T15:12:36.570Z,17.57
2018-03-25T15:15:04.473Z,18.90
2018-03-25T15:17:32.703Z,17.23
2018-03-25T15:20:00.793Z,17.07
2018-03-25T15:22:29.186Z,17.60
2018-03-25T15:24:57.783Z,16.47
2018-03-25T15:27:26.933Z,17.10
2018-03-25T15:29:55.844Z,16.57
2018-03-25T15:32:24.851Z,16.27
2018-03-25T15:34:54.468Z,18.37
2018-03-25T15:37:23.154Z,17.60
2018-03-25T15:39:52.763Z,17.80
2018-03-25T15:42:21.051Z,16.60
2018-03-25T15:44:49.817Z,17.03
2018-03-25T15:47:18.585Z,17.30
2018-03-25T15:49:47.184Z,18.50
2018-03-25T15:52:15.574Z,16.30
2018-03-25T15:54:44.278Z,20.30
2018-03-25T15:57:12.737Z,17.30
2018-03-25T15:59:41.275Z,19.47
2018-03-25T16:02:09.427Z,19.03
2018-03-25T16:04:38.064Z,22.40
2018-03-25T16:07:06.664Z,25.77
2018-03-25T16:09:35.133Z,24.30
2018-03-25T16:12:03.858Z,23.10
2018-03-25T16:14:33.432Z,20.27
2018-03-25T16:17:02.132Z,21.37
2018-03-25T16:19:30.408Z,22.70
2018-03-25T16:21:59.521Z,26.53
2018-03-25T16:24:30.314Z,24.77
2018-03-25T16:26:58.847Z,30.83
2018-03-25T16:29:27.456Z,30.20
2018-03-25T16:31:56.058Z,31.23
2018-03-25T16:34:25.000Z,32.50
2018-03-25T16:36:54.357Z,31.27
2018-03-25T16:39:24.598Z,35.30
2018-03-25T16:41:53.199Z,36.27
2018-03-25T16:44:23.211Z,32.67
2018-03-25T16:46:52.408Z,31.43
2018-03-25T16:49:21.380Z,33.37
2018-03-25T16:51:50.476Z,34.77
2018-03-25T16:54:18.869Z,33.40
2018-03-25T16:56:52.137Z,36.40
2018-03-25T16:59:22.562Z,38.40
2018-03-25T17:01:51.282Z,38.60
2018-03-25T17:04:19.729Z,38.27
2018-03-25T17:06:48.349Z,40.80
2018-03-25T17:09:18.633Z,40.83
2018-03-25T17:11:49.721Z,36.53
2018-03-25T17:14:18.487Z,39.40
2018-03-25T17:16:47.698Z,40.87
2018-03-25T17:19:17.675Z,38.90
2018-03-25T17:21:46.914Z,35.47
2018-03-25T17:24:16.358Z,39.60
2018-03-25T17:26:45.009Z,40.23
2018-03-25T17:29:15.007Z,39.87
2018-03-25T17:31:44.411Z,39.60
2018-03-25T17:34:15.009Z,39.53
2018-03-25T17:36:44.789Z,38.23
2018-03-25T17:39:13.590Z,40.17
2018-03-25T17:41:43.499Z,40.60
2018-03-25T17:44:14.965Z,35.90
2018-03-25T17:46:43.802Z,39.53
2018-03-25T17:49:12.958Z,43.03
2018-03-25T17:51:41.671Z,43.50
2018-03-25T17:54:10.263Z,39.33
2018-03-25T17:56:40.550Z,43.57
2018-03-25T17:59:10.399Z,52.07
2018-03-25T18:01:39.765Z,48.03
2018-03-25T18:04:08.572Z,44.63
2018-03-25T18:06:38.070Z,47.97
2018-03-25T18:09:07.469Z,45.93
2018-03-25T18:11:36.153Z,43.90
2018-03-25T18:14:07.488Z,48.83
2018-03-25T18:16:37.943Z,49.37
2018-03-25T18:19:07.559Z,49.80
2018-03-25T18:21:36.555Z,49.53
2018-03-25T18:24:05.751Z,44.53
2018-03-25T18:26:35.056Z,41.43
2018-03-25T18:29:04.764Z,38.93
2018-03-25T18:31:35.711Z,38.73
2018-03-25T18:34:04.591Z,41.40
2018-03-25T18:36:33.386Z,35.70
2018-03-25T18:39:02.946Z,37.37
2018-03-25T18:41:32.410Z,39.30
2018-03-25T18:44:01.879Z,36.80
2018-03-25T18:46:30.649Z,38.57
2018-03-25T18:49:00.144Z,40.90
2018-03-25T18:51:29.072Z,42.93
2018-03-25T18:53:58.064Z,42.97
2018-03-25T18:56:26.842Z,42.47
2018-03-25T18:58:54.884Z,39.37
2018-03-25T19:01:24.492Z,38.67
2018-03-25T19:03:54.242Z,37.07
2018-03-25T19:06:23.856Z,40.77
2018-03-25T19:08:53.311Z,42.80
2018-03-25T19:11:25.313Z,42.93
2018-03-25T19:13:54.302Z,42.13
2018-03-25T19:16:23.794Z,44.23
2018-03-25T19:18:51.800Z,40.27
2018-03-25T19:21:21.895Z,42.63
2018-03-25T19:23:50.671Z,41.57
2018-03-25T19:26:20.865Z,43.60
2018-03-25T19:28:50.120Z,43.23
2018-03-25T19:31:18.889Z,46.97
2018-03-25T19:33:48.456Z,48.83
2018-03-25T19:36:17.560Z,48.10
2018-03-25T19:38:47.804Z,48.83
2018-03-25T19:41:15.862Z,44.73
2018-03-25T19:43:44.979Z,46.50
2018-03-25T19:46:13.789Z,44.63
2018-03-25T19:48:42.962Z,43.63
2018-03-25T19:51:12.266Z,42.90
2018-03-25T19:53:46.538Z,45.27
2018-03-25T19:56:17.070Z,43.03
2018-03-25T19:58:46.422Z,44.50
2018-03-25T20:01:15.363Z,45.10
2018-03-25T20:03:44.208Z,44.47
2018-03-25T20:06:13.652Z,46.53
2018-03-25T20:08:44.190Z,47.10
2018-03-25T20:11:12.986Z,43.57
2018-03-25T20:13:42.169Z,47.10
2018-03-25T20:16:11.703Z,45.33
2018-03-25T20:18:40.595Z,44.10
2018-03-25T20:21:09.018Z,47.63
2018-03-25T20:23:37.473Z,44.80
2018-03-25T20:26:07.745Z,45.40
2018-03-25T20:28:37.658Z,47.83
2018-03-25T20:31:06.654Z,46.30
2018-03-25T20:33:35.030Z,43.27
2018-03-25T20:36:03.763Z,44.77
2018-03-25T20:38:33.913Z,49.10
2018-03-25T20:41:03.435Z,42.83
2018-03-25T20:43:32.096Z,44.50
2018-03-25T20:46:04.904Z,45.27
2018-03-25T20:48:33.302Z,47.13
2018-03-25T20:51:03.746Z,44.60
2018-03-25T20:53:32.799Z,45.20
2018-03-25T20:56:04.256Z,45.00
2018-03-25T20:58:33.359Z,44.33
2018-03-25T21:01:02.643Z,44.47
2018-03-25T21:03:30.920Z,44.47
2018-03-25T21:05:59.608Z,45.37
2018-03-25T21:08:28.862Z,45.77
2018-03-25T21:10:57.130Z,42.70
2018-03-25T21:13:26.589Z,42.53
2018-03-25T21:15:55.266Z,42.57
2018-03-25T21:18:24.260Z,44.47
2018-03-25T21:20:54.468Z,43.83
2018-03-25T21:23:23.728Z,45.80
2018-03-25T21:25:52.404Z,45.57
2018-03-25T21:28:21.565Z,45.90
2018-03-25T21:30:49.844Z,47.37
2018-03-25T21:33:18.524Z,45.77
2018-03-25T21:35:47.824Z,44.67
2018-03-25T21:38:16.128Z,45.50
2018-03-25T21:40:44.573Z,47.57
2018-03-25T21:43:12.950Z,44.70
2018-03-25T21:45:41.224Z,47.37
2018-03-25T21:48:09.232Z,46.17
2018-03-25T21:50:37.456Z,43.40
2018-03-25T21:53:05.720Z,44.20
2018-03-25T21:55:33.277Z,45.63
2018-03-25T21:58:01.093Z,44.60
2018-03-25T22:00:28.951Z,45.53
2018-03-25T22:02:56.546Z,45.17
2018-03-25T22:05:24.142Z,39.27
2018-03-25T22:07:52.404Z,41.27
2018-03-25T22:10:19.968Z,41.03
2018-03-25T22:12:47.516Z,42.27
2018-03-25T22:15:15.120Z,41.47
2018-03-25T22:17:42.680Z,40.70
2018-03-25T22:20:10.286Z,41.97
2018-03-25T22:22:38.840Z,42.23
2018-03-25T22:25:06.436Z,41.03
2018-03-25T22:27:34.722Z,38.83
2018-03-25T22:30:02.472Z,40.10
2018-03-25T22:32:30.175Z,39.73
2018-03-25T22:34:58.300Z,40.47
2018-03-25T22:37:25.898Z,39.37
2018-03-25T22:39:53.504Z,40.43
2018-03-25T22:42:21.097Z,38.63
2018-03-25T22:44:48.644Z,37.37
2018-03-25T22:47:16.228Z,35.47
2018-03-25T22:49:43.783Z,36.23
2018-03-25T22:52:11.395Z,37.93
2018-03-25T22:54:38.941Z,38.00
2018-03-25T22:57:06.539Z,40.07
2018-03-25T22:59:34.083Z,37.17
2018-03-25T23:02:01.667Z,35.77
2018-03-25T23:04:29.261Z,37.07
2018-03-25T23:06:56.860Z,36.40
2018-03-25T23:09:24.461Z,37.33
2018-03-25T23:11:51.998Z,37.37
2018-03-25T23:14:20.024Z,36.03
2018-03-25T23:16:47.620Z,37.70
2018-03-25T23:19:15.178Z,35.67
2018-03-25T23:21:42.720Z,36.33
2018-03-25T23:24:10.308Z,35.43
2018-03-25T23:26:37.908Z,36.37
2018-03-25T23:29:05.507Z,35.03
2018-03-25T23:31:33.149Z,35.30
2018-03-25T23:34:00.745Z,34.00
2018-03-25T23:36:28.638Z,34.20
2018-03-25T23:38:56.215Z,35.70
2018-03-25T23:41:23.851Z,34.60
2018-03-25T23:43:51.435Z,34.83
2018-03-25T23:46:19.571Z,33.47
2018-03-25T23:48:47.175Z,34.70
2018-03-25T23:51:14.781Z,35.77
2018-03-25T23:53:42.339Z,35.20
2018-03-25T23:56:09.928Z,34.47
2018-03-25T23:58:37.467Z,32.30
